Capitol Logistics 3263




KMCO
Orlando International Airport
Orlando, Florida
KMIA
Miami International Airport
Miami, Florida

Activity Log

Date Flight Route Aircraft Duration
04/05/2021 CPX3263 MLB ANNEY4 SF34 1h 08m
03/25/2021 CPX3263 SERAY ODDEL V267 PIONN VP025 EPENY SF34 1h 03m
11/04/2019 CPX663 MLB ANNEY4 SF34 1h 02m
10/06/2019 CPX663 MLB ANNEY4 SF34 1h 04m
08/25/2019 CPX663 MLB ANNEY4 SF34 1h 03m

Route Details

Aircraft Information
Primary: Saab 340AF
Backup: Not Available
Route Data
Distance: 167nm
Duration: 1h 25m
Recm'd Route: MLB ANNEY4
Origin Wx: KMCO 180153Z 26006KT 10SM FEW025 SCT250 26/20 A2988 RMK AO2 SLP115 T02560200
Dest. Wx: KMIA 180153Z 28006KT 10SM CLR 26/18 A2991 RMK AO2 SLP128 T02610178 $
Notes: